KAVL/AVL METAR and TAF weather

Enter ICAO airport designator
Station Type Date Time Source
KAVL METAR 2018/04/20 07:54 UTC NOAA

KAVL 200754Z AUTO 33012G22KT 10SM CLR 03/M04 A3026 RMK AO2 SLP246 T00331039


Station Type Date Time Source
KAVL Decoded METAR 2018/04/20 07:54 UTC NOAA

ASHEVILLE REGIONAL AIRPORT, NC, United States (KAVL) 35-26N 82-32W 670M
Apr 20, 2018 - 03:54 AM EDT / 2018.04.20 0754 UTC
Wind: from the NNW (330 degrees) at 14 MPH (12 KT) gusting to 25 MPH (22 KT):0
Visibility: 10 mile(s):0
Sky conditions: clear
Temperature: 37.9 F (3.3 C)
Dew Point: 25.0 F (-3.9 C)
Relative Humidity: 59%
Pressure (altimeter): 30.26 in. Hg (1024 hPa)
ob: KAVL 200754Z AUTO 33012G22KT 10SM CLR 03/M04 A3026 RMK AO2 SLP246 T00331039
cycle: 8

Station Type Date Time Source
KAVL TAF 2018/04/20 06:36 UTC NOAA

TAF KAVL 200534Z 2006/2106 34012G22KT P6SM SKC
FM201100 33007KT P6SM SKC
FM210300 VRB03KT P6SM SKC


Example: see airport list